sensor_id;sensor_type;location;lat;lon;timestamp;temperature;humidity
18729;DHT22;9493;51.884;5.188;2022-10-16T00:01:52;12.40;99.90
18729;DHT22;9493;51.884;5.188;2022-10-16T00:04:20;12.50;99.90
18729;DHT22;9493;51.884;5.188;2022-10-16T00:06:47;12.50;99.90
18729;DHT22;9493;51.884;5.188;2022-10-16T00:09:14;12.50;99.90
18729;DHT22;9493;51.884;5.188;2022-10-16T00:11:41;12.60;99.90
18729;DHT22;9493;51.884;5.188;2022-10-16T00:14:10;12.60;99.90
18729;DHT22;9493;51.884;5.188;2022-10-16T00:16:38;12.60;99.90
18729;DHT22;9493;51.884;5.188;2022-10-16T00:19:05;12.60;99.90
18729;DHT22;9493;51.884;5.188;2022-10-16T00:21:34;12.70;99.90
18729;DHT22;9493;51.884;5.188;2022-10-16T00:24:03;12.70;99.90
18729;DHT22;9493;51.884;5.188;2022-10-16T00:26:31;12.70;99.90
18729;DHT22;9493;51.884;5.188;2022-10-16T00:28:58;12.80;99.90
18729;DHT22;9493;51.884;5.188;2022-10-16T00:31:25;12.90;99.90
18729;DHT22;9493;51.884;5.188;2022-10-16T00:33:52;12.90;99.90
18729;DHT22;9493;51.884;5.188;2022-10-16T00:36:21;13.00;99.90
18729;DHT22;9493;51.884;5.188;2022-10-16T00:38:51;13.00;99.90
18729;DHT22;9493;51.884;5.188;2022-10-16T00:41:21;13.10;99.90
18729;DHT22;9493;51.884;5.188;2022-10-16T00:43:49;13.10;99.90
18729;DHT22;9493;51.884;5.188;2022-10-16T00:46:20;13.10;99.90
18729;DHT22;9493;51.884;5.188;2022-10-16T00:48:50;13.10;99.90
18729;DHT22;9493;51.884;5.188;2022-10-16T00:51:20;13.20;99.90
18729;DHT22;9493;51.884;5.188;2022-10-16T00:53:48;13.30;99.90
18729;DHT22;9493;51.884;5.188;2022-10-16T00:56:16;13.30;99.90
18729;DHT22;9493;51.884;5.188;2022-10-16T00:58:44;13.30;99.90
18729;DHT22;9493;51.884;5.188;2022-10-16T01:01:10;13.30;99.90
18729;DHT22;9493;51.884;5.188;2022-10-16T01:03:38;13.40;99.90
18729;DHT22;9493;51.884;5.188;2022-10-16T01:06:21;13.40;99.90
18729;DHT22;9493;51.884;5.188;2022-10-16T01:09:03;13.40;99.90
18729;DHT22;9493;51.884;5.188;2022-10-16T01:11:36;13.50;99.90
18729;DHT22;9493;51.884;5.188;2022-10-16T01:14:09;13.40;99.90
18729;DHT22;9493;51.884;5.188;2022-10-16T01:16:41;13.50;99.90
18729;DHT22;9493;51.884;5.188;2022-10-16T01:19:15;13.80;99.90
18729;DHT22;9493;51.884;5.188;2022-10-16T01:21:47;13.50;99.90
18729;DHT22;9493;51.884;5.188;2022-10-16T01:24:23;13.50;99.90
18729;DHT22;9493;51.884;5.188;2022-10-16T01:27:10;13.50;99.90
18729;DHT22;9493;51.884;5.188;2022-10-16T01:29:42;13.50;99.90
18729;DHT22;9493;51.884;5.188;2022-10-16T01:32:18;13.50;99.90
18729;DHT22;9493;51.884;5.188;2022-10-16T01:34:49;13.50;99.90
18729;DHT22;9493;51.884;5.188;2022-10-16T01:37:27;13.40;99.90
18729;DHT22;9493;51.884;5.188;2022-10-16T01:39:58;13.40;99.90
18729;DHT22;9493;51.884;5.188;2022-10-16T01:42:32;13.40;99.90
18729;DHT22;9493;51.884;5.188;2022-10-16T01:45:01;13.40;99.90
18729;DHT22;9493;51.884;5.188;2022-10-16T01:47:30;13.40;99.90
18729;DHT22;9493;51.884;5.188;2022-10-16T01:49:58;13.30;99.90
18729;DHT22;9493;51.884;5.188;2022-10-16T01:52:28;13.30;99.90
18729;DHT22;9493;51.884;5.188;2022-10-16T01:54:57;13.30;99.90
18729;DHT22;9493;51.884;5.188;2022-10-16T01:57:25;13.30;99.90
18729;DHT22;9493;51.884;5.188;2022-10-16T01:59:58;13.20;99.90
18729;DHT22;9493;51.884;5.188;2022-10-16T02:02:27;13.30;99.90
18729;DHT22;9493;51.884;5.188;2022-10-16T02:04:57;13.20;99.90
18729;DHT22;9493;51.884;5.188;2022-10-16T02:07:25;13.20;99.90
18729;DHT22;9493;51.884;5.188;2022-10-16T02:09:52;13.30;99.90
18729;DHT22;9493;51.884;5.188;2022-10-16T02:12:23;13.30;99.90
18729;DHT22;9493;51.884;5.188;2022-10-16T02:14:51;13.40;99.90
18729;DHT22;9493;51.884;5.188;2022-10-16T02:17:20;13.40;99.90
18729;DHT22;9493;51.884;5.188;2022-10-16T02:19:48;13.40;99.90
18729;DHT22;9493;51.884;5.188;2022-10-16T02:22:20;13.30;99.90
18729;DHT22;9493;51.884;5.188;2022-10-16T02:24:52;13.30;99.90
18729;DHT22;9493;51.884;5.188;2022-10-16T02:27:24;13.30;99.90
18729;DHT22;9493;51.884;5.188;2022-10-16T02:29:54;13.30;99.90
18729;DHT22;9493;51.884;5.188;2022-10-16T02:32:30;13.30;99.90
18729;DHT22;9493;51.884;5.188;2022-10-16T02:34:58;13.30;99.90
18729;DHT22;9493;51.884;5.188;2022-10-16T02:37:27;13.20;99.90
18729;DHT22;9493;51.884;5.188;2022-10-16T02:39:55;13.20;99.90
18729;DHT22;9493;51.884;5.188;2022-10-16T02:42:27;13.20;99.90
18729;DHT22;9493;51.884;5.188;2022-10-16T02:44:54;13.20;99.90
18729;DHT22;9493;51.884;5.188;2022-10-16T02:47:21;13.10;99.90
18729;DHT22;9493;51.884;5.188;2022-10-16T02:49:49;13.50;99.90
18729;DHT22;9493;51.884;5.188;2022-10-16T02:52:16;13.30;99.90
18729;DHT22;9493;51.884;5.188;2022-10-16T02:54:43;13.20;99.90
18729;DHT22;9493;51.884;5.188;2022-10-16T02:57:10;13.20;99.90
18729;DHT22;9493;51.884;5.188;2022-10-16T02:59:37;13.20;99.90
18729;DHT22;9493;51.884;5.188;2022-10-16T03:02:04;13.10;99.90
18729;DHT22;9493;51.884;5.188;2022-10-16T03:04:30;13.20;99.90
18729;DHT22;9493;51.884;5.188;2022-10-16T03:06:59;13.30;99.90
18729;DHT22;9493;51.884;5.188;2022-10-16T03:09:26;13.10;99.90
18729;DHT22;9493;51.884;5.188;2022-10-16T03:11:52;13.10;99.90
18729;DHT22;9493;51.884;5.188;2022-10-16T03:14:19;13.00;99.90
18729;DHT22;9493;51.884;5.188;2022-10-16T03:16:46;13.00;99.90
18729;DHT22;9493;51.884;5.188;2022-10-16T03:19:13;13.00;99.90
18729;DHT22;9493;51.884;5.188;2022-10-16T03:21:40;13.00;99.90
18729;DHT22;9493;51.884;5.188;2022-10-16T03:24:08;12.90;99.90
18729;DHT22;9493;51.884;5.188;2022-10-16T03:26:35;12.90;99.90
18729;DHT22;9493;51.884;5.188;2022-10-16T03:29:02;12.80;99.90
18729;DHT22;9493;51.884;5.188;2022-10-16T03:31:30;12.90;99.90
18729;DHT22;9493;51.884;5.188;2022-10-16T03:33:57;12.90;99.90
18729;DHT22;9493;51.884;5.188;2022-10-16T03:36:23;12.90;99.90
18729;DHT22;9493;51.884;5.188;2022-10-16T03:38:50;12.90;99.90
18729;DHT22;9493;51.884;5.188;2022-10-16T03:41:18;13.00;99.90
18729;DHT22;9493;51.884;5.188;2022-10-16T03:43:45;12.80;99.90
18729;DHT22;9493;51.884;5.188;2022-10-16T03:46:12;12.90;99.90
18729;DHT22;9493;51.884;5.188;2022-10-16T03:48:39;12.90;99.90
18729;DHT22;9493;51.884;5.188;2022-10-16T03:51:06;12.90;99.90
18729;DHT22;9493;51.884;5.188;2022-10-16T03:53:33;12.90;99.90
18729;DHT22;9493;51.884;5.188;2022-10-16T03:56:00;12.90;99.90
18729;DHT22;9493;51.884;5.188;2022-10-16T03:58:28;13.00;99.90
18729;DHT22;9493;51.884;5.188;2022-10-16T04:00:55;12.90;99.90
18729;DHT22;9493;51.884;5.188;2022-10-16T04:03:22;13.00;99.90
18729;DHT22;9493;51.884;5.188;2022-10-16T04:05:49;12.90;99.90
18729;DHT22;9493;51.884;5.188;2022-10-16T04:08:16;12.90;99.90
18729;DHT22;9493;51.884;5.188;2022-10-16T04:10:43;12.90;99.90
18729;DHT22;9493;51.884;5.188;2022-10-16T04:13:11;12.90;99.90
18729;DHT22;9493;51.884;5.188;2022-10-16T04:15:39;12.80;99.90
18729;DHT22;9493;51.884;5.188;2022-10-16T04:18:06;12.90;99.90
18729;DHT22;9493;51.884;5.188;2022-10-16T04:20:33;12.90;99.90
18729;DHT22;9493;51.884;5.188;2022-10-16T04:23:00;12.80;99.90
18729;DHT22;9493;51.884;5.188;2022-10-16T04:25:27;12.90;99.90
18729;DHT22;9493;51.884;5.188;2022-10-16T04:27:54;12.80;99.90
18729;DHT22;9493;51.884;5.188;2022-10-16T04:30:22;12.80;99.90
18729;DHT22;9493;51.884;5.188;2022-10-16T04:32:51;12.90;99.90
18729;DHT22;9493;51.884;5.188;2022-10-16T04:35:19;12.90;99.90
18729;DHT22;9493;51.884;5.188;2022-10-16T04:37:46;12.80;99.90
18729;DHT22;9493;51.884;5.188;2022-10-16T04:40:13;12.80;99.90
18729;DHT22;9493;51.884;5.188;2022-10-16T04:42:40;12.90;99.90
18729;DHT22;9493;51.884;5.188;2022-10-16T04:45:07;12.80;99.90
18729;DHT22;9493;51.884;5.188;2022-10-16T04:47:34;12.70;99.90
18729;DHT22;9493;51.884;5.188;2022-10-16T04:50:03;12.70;99.90
18729;DHT22;9493;51.884;5.188;2022-10-16T04:52:30;12.70;99.90
18729;DHT22;9493;51.884;5.188;2022-10-16T04:54:57;12.60;99.90
18729;DHT22;9493;51.884;5.188;2022-10-16T04:57:27;12.60;99.90
18729;DHT22;9493;51.884;5.188;2022-10-16T04:59:53;12.60;99.90
18729;DHT22;9493;51.884;5.188;2022-10-16T05:02:20;12.60;99.90
18729;DHT22;9493;51.884;5.188;2022-10-16T05:04:47;12.50;99.90
18729;DHT22;9493;51.884;5.188;2022-10-16T05:07:15;12.50;99.90
18729;DHT22;9493;51.884;5.188;2022-10-16T05:09:42;12.40;99.90
18729;DHT22;9493;51.884;5.188;2022-10-16T05:12:09;12.50;99.90
18729;DHT22;9493;51.884;5.188;2022-10-16T05:14:36;12.50;99.90
18729;DHT22;9493;51.884;5.188;2022-10-16T05:17:03;12.40;99.90
18729;DHT22;9493;51.884;5.188;2022-10-16T05:19:30;12.30;99.90
18729;DHT22;9493;51.884;5.188;2022-10-16T05:21:57;12.40;99.90
18729;DHT22;9493;51.884;5.188;2022-10-16T05:24:25;12.40;99.90
18729;DHT22;9493;51.884;5.188;2022-10-16T05:26:52;12.30;99.90
18729;DHT22;9493;51.884;5.188;2022-10-16T05:29:19;12.40;99.90
18729;DHT22;9493;51.884;5.188;2022-10-16T05:31:46;12.40;99.90
18729;DHT22;9493;51.884;5.188;2022-10-16T05:34:16;12.30;99.90
18729;DHT22;9493;51.884;5.188;2022-10-16T05:36:42;12.30;99.90
18729;DHT22;9493;51.884;5.188;2022-10-16T05:39:10;12.30;99.90
18729;DHT22;9493;51.884;5.188;2022-10-16T05:41:38;12.30;99.90
18729;DHT22;9493;51.884;5.188;2022-10-16T05:44:05;12.40;99.90
18729;DHT22;9493;51.884;5.188;2022-10-16T05:46:32;12.50;99.90
18729;DHT22;9493;51.884;5.188;2022-10-16T05:48:59;12.40;99.90
18729;DHT22;9493;51.884;5.188;2022-10-16T05:51:26;12.50;99.90
18729;DHT22;9493;51.884;5.188;2022-10-16T05:53:53;12.40;99.90
18729;DHT22;9493;51.884;5.188;2022-10-16T05:56:20;12.40;99.90
18729;DHT22;9493;51.884;5.188;2022-10-16T05:58:48;12.40;99.90
18729;DHT22;9493;51.884;5.188;2022-10-16T06:01:16;12.50;99.90
18729;DHT22;9493;51.884;5.188;2022-10-16T06:03:44;12.50;99.90
18729;DHT22;9493;51.884;5.188;2022-10-16T06:06:12;12.50;99.90
18729;DHT22;9493;51.884;5.188;2022-10-16T06:08:40;12.50;99.90
18729;DHT22;9493;51.884;5.188;2022-10-16T06:11:08;12.60;99.90
18729;DHT22;9493;51.884;5.188;2022-10-16T06:13:35;12.70;99.90
18729;DHT22;9493;51.884;5.188;2022-10-16T06:16:05;12.60;99.90
18729;DHT22;9493;51.884;5.188;2022-10-16T06:18:31;12.60;99.90
18729;DHT22;9493;51.884;5.188;2022-10-16T06:20:58;12.80;99.90
18729;DHT22;9493;51.884;5.188;2022-10-16T06:23:25;12.60;99.90
18729;DHT22;9493;51.884;5.188;2022-10-16T06:25:52;12.80;99.90
18729;DHT22;9493;51.884;5.188;2022-10-16T06:28:19;12.70;99.90
18729;DHT22;9493;51.884;5.188;2022-10-16T06:30:46;12.60;99.90
18729;DHT22;9493;51.884;5.188;2022-10-16T06:33:14;12.70;99.90
18729;DHT22;9493;51.884;5.188;2022-10-16T06:35:41;12.70;99.90
18729;DHT22;9493;51.884;5.188;2022-10-16T06:38:08;13.00;99.90
18729;DHT22;9493;51.884;5.188;2022-10-16T06:40:34;12.70;99.90
18729;DHT22;9493;51.884;5.188;2022-10-16T06:43:01;12.80;99.90
18729;DHT22;9493;51.884;5.188;2022-10-16T06:45:28;12.80;99.90
18729;DHT22;9493;51.884;5.188;2022-10-16T06:47:55;12.90;99.90
18729;DHT22;9493;51.884;5.188;2022-10-16T06:50:23;12.80;99.90
18729;DHT22;9493;51.884;5.188;2022-10-16T06:52:50;12.90;99.90
18729;DHT22;9493;51.884;5.188;2022-10-16T06:55:16;12.90;99.90
18729;DHT22;9493;51.884;5.188;2022-10-16T06:57:43;12.90;99.90
18729;DHT22;9493;51.884;5.188;2022-10-16T07:00:11;12.90;99.90
18729;DHT22;9493;51.884;5.188;2022-10-16T07:02:38;13.00;99.90
18729;DHT22;9493;51.884;5.188;2022-10-16T07:05:05;13.10;99.90
18729;DHT22;9493;51.884;5.188;2022-10-16T07:07:33;13.10;99.90
18729;DHT22;9493;51.884;5.188;2022-10-16T07:10:00;13.20;99.90
18729;DHT22;9493;51.884;5.188;2022-10-16T07:12:26;13.20;99.90
18729;DHT22;9493;51.884;5.188;2022-10-16T07:14:53;13.20;99.90
18729;DHT22;9493;51.884;5.188;2022-10-16T07:17:21;13.20;99.90
18729;DHT22;9493;51.884;5.188;2022-10-16T07:19:47;13.30;99.90
18729;DHT22;9493;51.884;5.188;2022-10-16T07:22:14;13.20;99.90
18729;DHT22;9493;51.884;5.188;2022-10-16T07:24:42;13.30;99.90
18729;DHT22;9493;51.884;5.188;2022-10-16T07:27:09;13.20;99.90
18729;DHT22;9493;51.884;5.188;2022-10-16T07:29:36;13.20;99.90
18729;DHT22;9493;51.884;5.188;2022-10-16T07:32:03;13.20;99.90
18729;DHT22;9493;51.884;5.188;2022-10-16T07:34:30;13.30;99.90
18729;DHT22;9493;51.884;5.188;2022-10-16T07:36:56;13.30;99.90
18729;DHT22;9493;51.884;5.188;2022-10-16T07:39:23;13.30;99.90
18729;DHT22;9493;51.884;5.188;2022-10-16T07:41:51;13.30;99.90
18729;DHT22;9493;51.884;5.188;2022-10-16T07:44:18;13.30;99.90
18729;DHT22;9493;51.884;5.188;2022-10-16T07:46:44;13.30;99.90
18729;DHT22;9493;51.884;5.188;2022-10-16T07:49:11;13.30;99.90
18729;DHT22;9493;51.884;5.188;2022-10-16T07:51:38;13.30;99.90
18729;DHT22;9493;51.884;5.188;2022-10-16T07:54:05;13.30;99.90
18729;DHT22;9493;51.884;5.188;2022-10-16T07:56:32;13.40;99.90
18729;DHT22;9493;51.884;5.188;2022-10-16T07:59:00;13.50;99.90
18729;DHT22;9493;51.884;5.188;2022-10-16T08:01:27;13.50;99.90
18729;DHT22;9493;51.884;5.188;2022-10-16T08:03:53;13.60;99.90
18729;DHT22;9493;51.884;5.188;2022-10-16T08:06:21;13.60;99.90
18729;DHT22;9493;51.884;5.188;2022-10-16T08:08:48;13.70;99.90
18729;DHT22;9493;51.884;5.188;2022-10-16T08:11:15;13.80;99.90
18729;DHT22;9493;51.884;5.188;2022-10-16T08:13:42;13.80;99.90
18729;DHT22;9493;51.884;5.188;2022-10-16T08:16:10;13.90;99.90
18729;DHT22;9493;51.884;5.188;2022-10-16T08:18:38;14.00;99.90
18729;DHT22;9493;51.884;5.188;2022-10-16T08:21:06;14.00;99.90
18729;DHT22;9493;51.884;5.188;2022-10-16T08:23:34;14.10;99.90
18729;DHT22;9493;51.884;5.188;2022-10-16T08:26:06;14.20;99.90
18729;DHT22;9493;51.884;5.188;2022-10-16T08:28:33;14.20;99.90
18729;DHT22;9493;51.884;5.188;2022-10-16T08:31:08;14.20;99.90
18729;DHT22;9493;51.884;5.188;2022-10-16T08:33:36;14.30;99.90
18729;DHT22;9493;51.884;5.188;2022-10-16T08:36:04;14.50;99.90
18729;DHT22;9493;51.884;5.188;2022-10-16T08:38:31;14.50;99.90
18729;DHT22;9493;51.884;5.188;2022-10-16T08:41:10;14.60;99.90
18729;DHT22;9493;51.884;5.188;2022-10-16T08:43:56;14.80;99.90
18729;DHT22;9493;51.884;5.188;2022-10-16T08:46:35;14.80;99.90
18729;DHT22;9493;51.884;5.188;2022-10-16T08:49:10;14.90;99.90
18729;DHT22;9493;51.884;5.188;2022-10-16T08:51:38;14.90;99.90
18729;DHT22;9493;51.884;5.188;2022-10-16T08:54:21;15.20;99.90
18729;DHT22;9493;51.884;5.188;2022-10-16T08:56:48;15.20;99.90
18729;DHT22;9493;51.884;5.188;2022-10-16T08:59:16;15.20;99.90
18729;DHT22;9493;51.884;5.188;2022-10-16T09:01:45;15.50;99.90
18729;DHT22;9493;51.884;5.188;2022-10-16T09:04:48;15.60;99.90
18729;DHT22;9493;51.884;5.188;2022-10-16T09:07:24;15.80;99.90
18729;DHT22;9493;51.884;5.188;2022-10-16T09:10:02;16.00;99.90
18729;DHT22;9493;51.884;5.188;2022-10-16T09:12:36;16.10;99.90
18729;DHT22;9493;51.884;5.188;2022-10-16T09:15:14;16.20;99.90
18729;DHT22;9493;51.884;5.188;2022-10-16T09:17:50;16.60;99.90
18729;DHT22;9493;51.884;5.188;2022-10-16T09:20:38;16.50;99.90
18729;DHT22;9493;51.884;5.188;2022-10-16T09:23:15;16.50;99.90
18729;DHT22;9493;51.884;5.188;2022-10-16T09:25:44;16.60;99.90
18729;DHT22;9493;51.884;5.188;2022-10-16T09:28:13;16.70;99.90
18729;DHT22;9493;51.884;5.188;2022-10-16T09:30:40;16.90;99.90
18729;DHT22;9493;51.884;5.188;2022-10-16T09:33:08;16.80;99.90
18729;DHT22;9493;51.884;5.188;2022-10-16T09:35:38;16.70;99.90
18729;DHT22;9493;51.884;5.188;2022-10-16T09:38:06;16.70;99.90
18729;DHT22;9493;51.884;5.188;2022-10-16T09:40:35;17.00;99.90
18729;DHT22;9493;51.884;5.188;2022-10-16T09:43:12;16.80;99.90
18729;DHT22;9493;51.884;5.188;2022-10-16T09:45:43;17.20;99.90
18729;DHT22;9493;51.884;5.188;2022-10-16T09:48:19;17.10;99.90
18729;DHT22;9493;51.884;5.188;2022-10-16T09:50:57;17.10;99.90
18729;DHT22;9493;51.884;5.188;2022-10-16T09:53:24;17.50;99.90
18729;DHT22;9493;51.884;5.188;2022-10-16T09:55:54;17.70;99.90
18729;DHT22;9493;51.884;5.188;2022-10-16T09:58:22;17.80;99.90
18729;DHT22;9493;51.884;5.188;2022-10-16T10:00:51;17.90;99.90
18729;DHT22;9493;51.884;5.188;2022-10-16T10:03:35;18.10;99.90
18729;DHT22;9493;51.884;5.188;2022-10-16T10:08:58;18.00;99.90
18729;DHT22;9493;51.884;5.188;2022-10-16T10:11:47;18.10;99.90
18729;DHT22;9493;51.884;5.188;2022-10-16T10:14:20;18.10;99.90
18729;DHT22;9493;51.884;5.188;2022-10-16T10:16:48;18.40;99.90
18729;DHT22;9493;51.884;5.188;2022-10-16T10:19:17;18.40;99.90
18729;DHT22;9493;51.884;5.188;2022-10-16T10:21:46;18.20;99.90
18729;DHT22;9493;51.884;5.188;2022-10-16T10:24:14;18.50;99.90
18729;DHT22;9493;51.884;5.188;2022-10-16T10:26:48;18.30;99.90
18729;DHT22;9493;51.884;5.188;2022-10-16T10:29:22;18.00;99.90
18729;DHT22;9493;51.884;5.188;2022-10-16T10:32:00;18.10;99.90
18729;DHT22;9493;51.884;5.188;2022-10-16T10:34:43;18.10;99.90
18729;DHT22;9493;51.884;5.188;2022-10-16T10:37:26;18.30;99.90
18729;DHT22;9493;51.884;5.188;2022-10-16T10:39:58;18.00;99.90
18729;DHT22;9493;51.884;5.188;2022-10-16T10:42:30;18.30;99.90
18729;DHT22;9493;51.884;5.188;2022-10-16T10:45:17;18.50;99.90
18729;DHT22;9493;51.884;5.188;2022-10-16T10:47:53;18.90;99.90
18729;DHT22;9493;51.884;5.188;2022-10-16T10:50:31;19.00;99.90
18729;DHT22;9493;51.884;5.188;2022-10-16T10:53:10;18.90;99.90
18729;DHT22;9493;51.884;5.188;2022-10-16T10:55:43;19.10;99.90
18729;DHT22;9493;51.884;5.188;2022-10-16T11:01:28;19.50;99.90
18729;DHT22;9493;51.884;5.188;2022-10-16T11:04:08;19.40;99.90
18729;DHT22;9493;51.884;5.188;2022-10-16T11:06:40;19.30;99.90
18729;DHT22;9493;51.884;5.188;2022-10-16T11:09:13;19.40;99.90
18729;DHT22;9493;51.884;5.188;2022-10-16T11:11:45;19.70;99.90
18729;DHT22;9493;51.884;5.188;2022-10-16T11:14:18;19.90;99.90
18729;DHT22;9493;51.884;5.188;2022-10-16T11:16:50;19.80;99.90
18729;DHT22;9493;51.884;5.188;2022-10-16T11:19:28;19.40;99.90
18729;DHT22;9493;51.884;5.188;2022-10-16T11:22:03;19.40;99.90
18729;DHT22;9493;51.884;5.188;2022-10-16T11:24:41;19.50;99.90
18729;DHT22;9493;51.884;5.188;2022-10-16T11:27:14;19.40;99.90
18729;DHT22;9493;51.884;5.188;2022-10-16T11:29:46;19.40;99.90
18729;DHT22;9493;51.884;5.188;2022-10-16T11:32:21;19.00;99.90
18729;DHT22;9493;51.884;5.188;2022-10-16T11:34:53;19.30;99.90
18729;DHT22;9493;51.884;5.188;2022-10-16T11:37:25;19.90;99.90
18729;DHT22;9493;51.884;5.188;2022-10-16T11:40:02;19.20;99.90
18729;DHT22;9493;51.884;5.188;2022-10-16T11:42:36;19.30;99.90
18729;DHT22;9493;51.884;5.188;2022-10-16T11:45:12;19.90;99.90
18729;DHT22;9493;51.884;5.188;2022-10-16T11:47:45;20.00;99.90
18729;DHT22;9493;51.884;5.188;2022-10-16T11:50:20;19.90;99.90
18729;DHT22;9493;51.884;5.188;2022-10-16T11:52:52;20.20;99.90
18729;DHT22;9493;51.884;5.188;2022-10-16T11:55:24;20.10;99.90
18729;DHT22;9493;51.884;5.188;2022-10-16T11:57:59;20.20;99.90
18729;DHT22;9493;51.884;5.188;2022-10-16T12:00:31;20.10;99.90
18729;DHT22;9493;51.884;5.188;2022-10-16T12:03:04;20.40;99.90
18729;DHT22;9493;51.884;5.188;2022-10-16T12:05:49;20.80;99.90
18729;DHT22;9493;51.884;5.188;2022-10-16T12:08:18;20.50;99.90
18729;DHT22;9493;51.884;5.188;2022-10-16T12:10:47;20.00;99.90
18729;DHT22;9493;51.884;5.188;2022-10-16T12:13:31;19.80;99.90
18729;DHT22;9493;51.884;5.188;2022-10-16T12:16:06;20.30;99.90
18729;DHT22;9493;51.884;5.188;2022-10-16T12:18:33;20.10;99.90
18729;DHT22;9493;51.884;5.188;2022-10-16T12:21:00;20.50;99.90
18729;DHT22;9493;51.884;5.188;2022-10-16T12:23:31;20.40;99.90
18729;DHT22;9493;51.884;5.188;2022-10-16T12:26:00;20.00;99.90
18729;DHT22;9493;51.884;5.188;2022-10-16T12:28:29;20.10;99.90
18729;DHT22;9493;51.884;5.188;2022-10-16T12:30:58;20.20;99.90
18729;DHT22;9493;51.884;5.188;2022-10-16T12:33:26;20.40;99.90
18729;DHT22;9493;51.884;5.188;2022-10-16T12:35:54;20.00;99.90
18729;DHT22;9493;51.884;5.188;2022-10-16T12:38:36;19.90;99.90
18729;DHT22;9493;51.884;5.188;2022-10-16T12:41:07;20.10;99.90
18729;DHT22;9493;51.884;5.188;2022-10-16T12:43:39;20.40;99.90
18729;DHT22;9493;51.884;5.188;2022-10-16T12:46:34;20.80;99.90
18729;DHT22;9493;51.884;5.188;2022-10-16T12:49:20;21.20;99.90
18729;DHT22;9493;51.884;5.188;2022-10-16T12:51:47;21.20;99.90
18729;DHT22;9493;51.884;5.188;2022-10-16T12:54:16;21.30;99.90
18729;DHT22;9493;51.884;5.188;2022-10-16T12:56:53;21.50;99.90
18729;DHT22;9493;51.884;5.188;2022-10-16T12:59:31;21.40;99.90
18729;DHT22;9493;51.884;5.188;2022-10-16T13:02:39;21.30;99.90
18729;DHT22;9493;51.884;5.188;2022-10-16T13:05:25;20.90;99.90
18729;DHT22;9493;51.884;5.188;2022-10-16T13:08:00;20.80;99.90
18729;DHT22;9493;51.884;5.188;2022-10-16T13:10:35;20.80;99.90
18729;DHT22;9493;51.884;5.188;2022-10-16T13:13:36;21.00;99.90
18729;DHT22;9493;51.884;5.188;2022-10-16T13:16:13;21.00;99.90
18729;DHT22;9493;51.884;5.188;2022-10-16T13:18:50;20.90;99.90
18729;DHT22;9493;51.884;5.188;2022-10-16T13:21:33;21.10;99.90
18729;DHT22;9493;51.884;5.188;2022-10-16T13:24:12;21.00;99.90
18729;DHT22;9493;51.884;5.188;2022-10-16T13:26:46;20.80;99.90
18729;DHT22;9493;51.884;5.188;2022-10-16T13:29:16;20.80;99.90
18729;DHT22;9493;51.884;5.188;2022-10-16T13:31:43;20.70;99.90
18729;DHT22;9493;51.884;5.188;2022-10-16T13:34:14;20.70;99.90
18729;DHT22;9493;51.884;5.188;2022-10-16T13:36:46;20.60;99.90
18729;DHT22;9493;51.884;5.188;2022-10-16T13:39:22;20.20;99.90
18729;DHT22;9493;51.884;5.188;2022-10-16T13:42:00;20.20;99.90
18729;DHT22;9493;51.884;5.188;2022-10-16T13:44:33;20.20;99.90
18729;DHT22;9493;51.884;5.188;2022-10-16T13:47:03;20.30;99.90
18729;DHT22;9493;51.884;5.188;2022-10-16T13:49:30;20.20;99.90
18729;DHT22;9493;51.884;5.188;2022-10-16T13:51:58;20.20;99.90
18729;DHT22;9493;51.884;5.188;2022-10-16T13:54:26;19.90;99.90
18729;DHT22;9493;51.884;5.188;2022-10-16T13:56:54;19.90;99.90
18729;DHT22;9493;51.884;5.188;2022-10-16T13:59:24;19.80;99.90
18729;DHT22;9493;51.884;5.188;2022-10-16T14:01:54;19.90;99.90
18729;DHT22;9493;51.884;5.188;2022-10-16T14:04:23;19.80;99.90
18729;DHT22;9493;51.884;5.188;2022-10-16T14:06:51;20.20;99.90
18729;DHT22;9493;51.884;5.188;2022-10-16T14:09:22;20.40;99.90
18729;DHT22;9493;51.884;5.188;2022-10-16T14:11:53;20.10;99.90
18729;DHT22;9493;51.884;5.188;2022-10-16T14:14:22;20.10;99.90
18729;DHT22;9493;51.884;5.188;2022-10-16T14:16:49;20.30;99.90
18729;DHT22;9493;51.884;5.188;2022-10-16T14:19:21;20.40;99.90
18729;DHT22;9493;51.884;5.188;2022-10-16T14:21:49;20.40;99.90
18729;DHT22;9493;51.884;5.188;2022-10-16T14:24:26;20.60;99.90
18729;DHT22;9493;51.884;5.188;2022-10-16T14:26:53;20.30;99.90
18729;DHT22;9493;51.884;5.188;2022-10-16T14:29:22;20.30;99.90
18729;DHT22;9493;51.884;5.188;2022-10-16T14:31:57;20.20;99.90
18729;DHT22;9493;51.884;5.188;2022-10-16T14:34:27;20.00;99.90
18729;DHT22;9493;51.884;5.188;2022-10-16T14:36:54;19.90;99.90
18729;DHT22;9493;51.884;5.188;2022-10-16T14:39:22;19.90;99.90
18729;DHT22;9493;51.884;5.188;2022-10-16T14:41:51;20.10;99.90
18729;DHT22;9493;51.884;5.188;2022-10-16T14:44:19;20.00;99.90
18729;DHT22;9493;51.884;5.188;2022-10-16T14:46:48;19.90;99.90
18729;DHT22;9493;51.884;5.188;2022-10-16T14:49:17;20.00;99.90
18729;DHT22;9493;51.884;5.188;2022-10-16T14:51:46;20.00;99.90
18729;DHT22;9493;51.884;5.188;2022-10-16T14:54:15;20.00;99.90
18729;DHT22;9493;51.884;5.188;2022-10-16T14:56:46;19.90;99.90
18729;DHT22;9493;51.884;5.188;2022-10-16T14:59:16;20.10;99.90
18729;DHT22;9493;51.884;5.188;2022-10-16T15:01:44;19.80;99.90
18729;DHT22;9493;51.884;5.188;2022-10-16T15:04:12;19.70;99.90
18729;DHT22;9493;51.884;5.188;2022-10-16T15:06:39;19.50;99.90
18729;DHT22;9493;51.884;5.188;2022-10-16T15:09:07;19.60;99.90
18729;DHT22;9493;51.884;5.188;2022-10-16T15:11:34;19.80;99.90
18729;DHT22;9493;51.884;5.188;2022-10-16T15:14:01;19.70;99.90
18729;DHT22;9493;51.884;5.188;2022-10-16T15:16:29;19.70;99.90
18729;DHT22;9493;51.884;5.188;2022-10-16T15:18:56;19.60;99.90
18729;DHT22;9493;51.884;5.188;2022-10-16T15:21:25;19.60;99.90
18729;DHT22;9493;51.884;5.188;2022-10-16T15:23:52;19.70;99.90
18729;DHT22;9493;51.884;5.188;2022-10-16T15:26:20;19.60;99.90
18729;DHT22;9493;51.884;5.188;2022-10-16T15:28:47;19.40;99.90
18729;DHT22;9493;51.884;5.188;2022-10-16T15:31:14;19.40;99.90
18729;DHT22;9493;51.884;5.188;2022-10-16T15:33:41;19.30;99.90
18729;DHT22;9493;51.884;5.188;2022-10-16T15:36:07;19.10;99.90
18729;DHT22;9493;51.884;5.188;2022-10-16T15:38:35;19.10;99.90
18729;DHT22;9493;51.884;5.188;2022-10-16T15:41:01;19.00;99.90
18729;DHT22;9493;51.884;5.188;2022-10-16T15:43:30;19.00;99.90
18729;DHT22;9493;51.884;5.188;2022-10-16T15:46:02;19.00;99.90
18729;DHT22;9493;51.884;5.188;2022-10-16T15:48:29;18.90;99.90
18729;DHT22;9493;51.884;5.188;2022-10-16T15:50:56;18.80;99.90
18729;DHT22;9493;51.884;5.188;2022-10-16T15:53:23;18.70;99.90
18729;DHT22;9493;51.884;5.188;2022-10-16T15:55:50;18.60;99.90
18729;DHT22;9493;51.884;5.188;2022-10-16T15:58:17;18.60;99.90
18729;DHT22;9493;51.884;5.188;2022-10-16T16:00:45;18.60;99.90
18729;DHT22;9493;51.884;5.188;2022-10-16T16:03:11;18.40;99.90
18729;DHT22;9493;51.884;5.188;2022-10-16T16:05:38;18.40;99.90
18729;DHT22;9493;51.884;5.188;2022-10-16T16:08:05;18.30;99.90
18729;DHT22;9493;51.884;5.188;2022-10-16T16:10:32;18.20;99.90